createdAt,value
2018-01-19T00:00:52.674Z,-69
2018-01-19T00:01:52.730Z,-70
2018-01-19T00:02:52.491Z,-69
2018-01-19T00:03:52.381Z,-70
2018-01-19T00:04:52.486Z,-68
2018-01-19T00:05:52.382Z,-70
2018-01-19T00:06:52.511Z,-69
2018-01-19T00:07:52.423Z,-70
2018-01-19T00:08:52.501Z,-70
2018-01-19T00:09:52.381Z,-70
2018-01-19T00:10:52.488Z,-68
2018-01-19T00:11:52.374Z,-70
2018-01-19T00:12:52.485Z,-70
2018-01-19T00:13:52.514Z,-69
2018-01-19T00:14:52.497Z,-70
2018-01-19T00:15:52.388Z,-70
2018-01-19T00:16:52.508Z,-69
2018-01-19T00:17:52.390Z,-70
2018-01-19T00:18:52.552Z,-69
2018-01-19T00:19:52.554Z,-70
2018-01-19T00:20:52.508Z,-70
2018-01-19T00:21:52.406Z,-69
2018-01-19T00:22:52.505Z,-68
2018-01-19T00:23:52.404Z,-69
2018-01-19T00:24:52.510Z,-70
2018-01-19T00:25:52.763Z,-70
2018-01-19T00:26:52.522Z,-69
2018-01-19T00:27:52.419Z,-69
2018-01-19T00:28:52.520Z,-69
2018-01-19T00:29:52.396Z,-70
2018-01-19T00:30:52.518Z,-69
2018-01-19T00:31:52.445Z,-68
2018-01-19T00:32:52.511Z,-69
2018-01-19T00:33:52.409Z,-70
2018-01-19T00:34:52.522Z,-70
2018-01-19T00:35:52.400Z,-69
2018-01-19T00:36:52.523Z,-68
2018-01-19T00:37:52.851Z,-68
2018-01-19T00:38:52.512Z,-70
2018-01-19T00:39:52.425Z,-70
2018-01-19T00:40:52.534Z,-70
2018-01-19T00:41:52.455Z,-68
2018-01-19T00:42:52.640Z,-70
2018-01-19T00:43:52.538Z,-70
2018-01-19T00:44:52.529Z,-68
2018-01-19T00:45:52.410Z,-69
2018-01-19T00:46:52.529Z,-69
2018-01-19T00:47:52.409Z,-70
2018-01-19T00:48:52.530Z,-68
2018-01-19T00:49:52.448Z,-69
2018-01-19T00:50:52.543Z,-70
2018-01-19T00:51:52.415Z,-68
2018-01-19T00:52:52.542Z,-70
2018-01-19T00:53:52.424Z,-70
2018-01-19T00:54:52.590Z,-68
2018-01-19T00:55:52.454Z,-69
2018-01-19T00:56:52.542Z,-70
2018-01-19T00:57:52.422Z,-70
2018-01-19T00:58:52.547Z,-70
2018-01-19T00:59:52.418Z,-70
2018-01-19T01:00:52.531Z,-69
2018-01-19T01:01:52.570Z,-70
2018-01-19T01:02:52.546Z,-70
2018-01-19T01:03:52.441Z,-69
2018-01-19T01:04:52.550Z,-69
2018-01-19T01:05:52.416Z,-69
2018-01-19T01:06:52.546Z,-68
2018-01-19T01:07:52.483Z,-69
2018-01-19T01:08:52.558Z,-70
2018-01-19T01:09:52.481Z,-69
2018-01-19T01:10:52.540Z,-70
2018-01-19T01:11:52.425Z,-69
2018-01-19T01:12:52.554Z,-68
2018-01-19T01:13:52.593Z,-68
2018-01-19T01:14:52.543Z,-68
2018-01-19T01:15:52.481Z,-70
2018-01-19T01:16:52.548Z,-69
2018-01-19T01:17:52.438Z,-70
2018-01-19T01:18:52.564Z,-70
2018-01-19T01:19:52.881Z,-70
2018-01-19T01:20:52.553Z,-69
2018-01-19T01:21:52.441Z,-70
2018-01-19T01:22:52.569Z,-69
2018-01-19T01:23:52.441Z,-70
2018-01-19T01:24:52.559Z,-70
2018-01-19T01:25:52.476Z,-70
2018-01-19T01:26:52.555Z,-70
2018-01-19T01:27:52.441Z,-69
2018-01-19T01:28:52.565Z,-70
2018-01-19T01:29:52.444Z,-68
2018-01-19T01:30:52.566Z,-69
2018-01-19T01:31:52.932Z,-70
2018-01-19T01:32:52.565Z,-70
2018-01-19T01:33:52.453Z,-70
2018-01-19T01:34:52.562Z,-69
2018-01-19T01:35:52.458Z,-70
2018-01-19T01:36:52.604Z,-69
2018-01-19T01:37:52.812Z,-70
2018-01-19T01:38:52.570Z,-68
2018-01-19T01:39:52.501Z,-70
2018-01-19T01:40:52.568Z,-70
2018-01-19T01:41:52.503Z,-70
2018-01-19T01:42:52.567Z,-68
2018-01-19T01:43:52.493Z,-70
2018-01-19T01:44:52.574Z,-70
2018-01-19T01:45:52.455Z,-70
2018-01-19T01:46:52.594Z,-68
2018-01-19T01:47:52.464Z,-70
2018-01-19T01:48:52.578Z,-70
2018-01-19T01:49:52.832Z,-69
2018-01-19T01:50:52.618Z,-68
2018-01-19T01:51:52.464Z,-69
2018-01-19T01:52:52.574Z,-70
2018-01-19T01:53:52.475Z,-69
2018-01-19T01:54:52.583Z,-68
2018-01-19T01:55:52.524Z,-69
2018-01-19T01:56:52.582Z,-69
2018-01-19T01:57:52.467Z,-68
2018-01-19T01:58:52.580Z,-70
2018-01-19T01:59:52.474Z,-68
2018-01-19T02:00:52.608Z,-68
2018-01-19T02:01:52.929Z,-70
2018-01-19T02:02:52.602Z,-69
2018-01-19T02:03:52.527Z,-69
2018-01-19T02:04:52.582Z,-69
2018-01-19T02:05:52.496Z,-69
2018-01-19T02:06:52.594Z,-68
2018-01-19T02:07:52.503Z,-69
2018-01-19T02:08:52.597Z,-70
2018-01-19T02:09:52.528Z,-69
2018-01-19T02:10:52.588Z,-69
2018-01-19T02:11:52.471Z,-68
2018-01-19T02:12:52.606Z,-70
2018-01-19T02:13:52.541Z,-69
2018-01-19T02:14:52.599Z,-69
2018-01-19T02:15:52.481Z,-68
2018-01-19T02:16:52.598Z,-70
2018-01-19T02:17:52.485Z,-69
2018-01-19T02:18:52.598Z,-68
2018-01-19T02:19:52.832Z,-68
2018-01-19T02:20:52.598Z,-67
2018-01-19T02:21:52.484Z,-69
2018-01-19T02:22:52.591Z,-68
2018-01-19T02:23:52.509Z,-69
2018-01-19T02:24:52.601Z,-68
2018-01-19T02:25:52.534Z,-68
2018-01-19T02:26:52.594Z,-68
2018-01-19T02:27:52.505Z,-67
2018-01-19T02:28:52.664Z,-69
2018-01-19T02:29:52.499Z,-68
2018-01-19T02:30:52.615Z,-69
2018-01-19T02:31:52.650Z,-69
2018-01-19T02:32:52.607Z,-69
2018-01-19T02:33:52.495Z,-68
2018-01-19T02:34:52.612Z,-70
2018-01-19T02:35:52.500Z,-69
2018-01-19T02:36:52.621Z,-69
2018-01-19T02:37:52.532Z,-68
2018-01-19T02:38:52.616Z,-70
2018-01-19T02:39:52.507Z,-69
2018-01-19T02:40:52.668Z,-69
2018-01-19T02:41:52.497Z,-68
2018-01-19T02:42:52.623Z,-68
2018-01-19T02:43:52.533Z,-70
2018-01-19T02:44:52.629Z,-70
2018-01-19T02:45:52.512Z,-69
2018-01-19T02:46:52.625Z,-69
2018-01-19T02:47:52.513Z,-72
2018-01-19T02:48:52.629Z,-72
2018-01-19T02:49:52.548Z,-71
2018-01-19T02:50:52.632Z,-70
2018-01-19T02:51:52.526Z,-70
2018-01-19T02:52:52.640Z,-72
2018-01-19T02:53:52.570Z,-70
2018-01-19T02:54:52.757Z,-72
2018-01-19T02:55:52.524Z,-71
2018-01-19T02:56:52.633Z,-70
2018-01-19T02:57:52.522Z,-72
2018-01-19T02:58:52.626Z,-70
2018-01-19T02:59:52.519Z,-71
2018-01-19T03:00:52.664Z,-69
2018-01-19T03:01:52.585Z,-69
2018-01-19T03:02:52.625Z,-71
2018-01-19T03:03:52.515Z,-72
2018-01-19T03:04:52.621Z,-71
2018-01-19T03:05:52.526Z,-70
2018-01-19T03:06:52.968Z,-69
2018-01-19T03:07:52.514Z,-68
2018-01-19T03:08:52.642Z,-69
2018-01-19T03:09:52.523Z,-71
2018-01-19T03:10:52.630Z,-71
2018-01-19T03:11:52.538Z,-72
2018-01-19T03:12:52.704Z,-69
2018-01-19T03:13:52.522Z,-71
2018-01-19T03:14:52.639Z,-71
2018-01-19T03:15:52.537Z,-70
2018-01-19T03:16:52.644Z,-71
2018-01-19T03:17:52.748Z,-69
2018-01-19T03:18:52.753Z,-70
2018-01-19T03:19:52.622Z,-70
2018-01-19T03:20:52.640Z,-71
2018-01-19T03:21:52.535Z,-70
2018-01-19T03:22:52.658Z,-69
2018-01-19T03:23:52.671Z,-70
2018-01-19T03:24:53.135Z,-71
2018-01-19T03:25:52.542Z,-70
2018-01-19T03:26:52.659Z,-70
2018-01-19T03:27:52.569Z,-71
2018-01-19T03:28:52.679Z,-69
2018-01-19T03:29:52.546Z,-71
2018-01-19T03:30:52.694Z,-71
2018-01-19T03:31:52.549Z,-70
2018-01-19T03:32:52.654Z,-71
2018-01-19T03:33:52.545Z,-71
2018-01-19T03:34:52.654Z,-71
2018-01-19T03:35:52.542Z,-71
2018-01-19T03:36:53.091Z,-71
2018-01-19T03:37:52.553Z,-71
2018-01-19T03:38:52.657Z,-70
2018-01-19T03:39:52.544Z,-71
2018-01-19T03:40:52.663Z,-71
2018-01-19T03:41:52.541Z,-71
2018-01-19T03:42:53.046Z,-71
2018-01-19T03:43:52.547Z,-71
2018-01-19T03:44:52.665Z,-69
2018-01-19T03:45:52.558Z,-71
2018-01-19T03:46:52.664Z,-71
2018-01-19T03:47:52.551Z,-70
2018-01-19T03:48:53.063Z,-71
2018-01-19T03:49:52.574Z,-70
2018-01-19T03:50:52.658Z,-70
2018-01-19T03:51:52.567Z,-71
2018-01-19T03:52:52.670Z,-69
2018-01-19T03:53:52.560Z,-70
2018-01-19T03:54:52.698Z,-71
2018-01-19T03:55:52.559Z,-70
2018-01-19T03:56:52.672Z,-71
2018-01-19T03:57:52.583Z,-70
2018-01-19T03:58:52.677Z,-71
2018-01-19T03:59:52.558Z,-71
2018-01-19T04:00:52.711Z,-71
2018-01-19T04:01:52.575Z,-70
2018-01-19T04:02:52.717Z,-71
2018-01-19T04:03:52.569Z,-71
2018-01-19T04:04:52.686Z,-71
2018-01-19T04:05:52.579Z,-71
2018-01-19T04:06:52.711Z,-71
2018-01-19T04:07:52.565Z,-71
2018-01-19T04:08:52.691Z,-71
2018-01-19T04:09:52.575Z,-70
2018-01-19T04:10:52.686Z,-70
2018-01-19T04:11:52.568Z,-70
2018-01-19T04:12:52.709Z,-70
2018-01-19T04:13:52.568Z,-70
2018-01-19T04:14:52.682Z,-71
2018-01-19T04:15:52.575Z,-71
2018-01-19T04:16:52.682Z,-71
2018-01-19T04:17:52.584Z,-70
2018-01-19T04:18:52.760Z,-69
2018-01-19T04:19:52.573Z,-71
2018-01-19T04:20:52.693Z,-71
2018-01-19T04:21:52.581Z,-71
2018-01-19T04:22:52.690Z,-71
2018-01-19T04:23:52.581Z,-68
2018-01-19T04:24:52.719Z,-67
2018-01-19T04:25:52.585Z,-70
2018-01-19T04:26:52.703Z,-69
2018-01-19T04:27:52.589Z,-68
2018-01-19T04:28:52.699Z,-70
2018-01-19T04:29:52.581Z,-70
2018-01-19T04:30:52.818Z,-71
2018-01-19T04:31:52.618Z,-71
2018-01-19T04:32:52.705Z,-71
2018-01-19T04:33:52.592Z,-71
2018-01-19T04:34:52.706Z,-72
2018-01-19T04:35:52.601Z,-71
2018-01-19T04:36:52.735Z,-70
2018-01-19T04:37:52.600Z,-69
2018-01-19T04:38:52.705Z,-72
2018-01-19T04:39:52.598Z,-72
2018-01-19T04:40:52.707Z,-70
2018-01-19T04:41:52.593Z,-70
2018-01-19T04:42:52.751Z,-71
2018-01-19T04:43:52.608Z,-70
2018-01-19T04:44:52.708Z,-71
2018-01-19T04:45:52.597Z,-71
2018-01-19T04:46:52.720Z,-70
2018-01-19T04:47:52.615Z,-70
2018-01-19T04:48:52.795Z,-71
2018-01-19T04:49:52.604Z,-71
2018-01-19T04:50:52.726Z,-71
2018-01-19T04:51:52.605Z,-72
2018-01-19T04:52:52.723Z,-69
2018-01-19T04:53:52.602Z,-71
2018-01-19T04:54:52.745Z,-71
2018-01-19T04:55:52.614Z,-70
2018-01-19T04:56:52.720Z,-72
2018-01-19T04:57:52.599Z,-71
2018-01-19T04:58:52.712Z,-71
2018-01-19T04:59:52.620Z,-70
2018-01-19T05:00:52.759Z,-71
2018-01-19T05:01:52.620Z,-70
2018-01-19T05:02:52.730Z,-71
2018-01-19T05:03:52.624Z,-70
2018-01-19T05:04:52.724Z,-70
2018-01-19T05:05:52.614Z,-71
2018-01-19T05:06:52.809Z,-71
2018-01-19T05:07:52.612Z,-71
2018-01-19T05:08:52.744Z,-71
2018-01-19T05:09:52.630Z,-70
2018-01-19T05:10:52.728Z,-71
2018-01-19T05:11:52.618Z,-70
2018-01-19T05:12:52.788Z,-70
2018-01-19T05:13:52.653Z,-69
2018-01-19T05:14:52.804Z,-71
2018-01-19T05:15:52.623Z,-72
2018-01-19T05:16:52.741Z,-71
2018-01-19T05:17:52.644Z,-72
2018-01-19T05:18:52.791Z,-71
2018-01-19T05:19:52.638Z,-71
2018-01-19T05:20:52.738Z,-71
2018-01-19T05:21:52.632Z,-71
2018-01-19T05:22:52.751Z,-70
2018-01-19T05:23:52.630Z,-70
2018-01-19T05:24:52.774Z,-71
2018-01-19T05:25:52.627Z,-70
2018-01-19T05:26:52.749Z,-70
2018-01-19T05:27:52.628Z,-71
2018-01-19T05:28:52.763Z,-70
2018-01-19T05:29:52.640Z,-70
2018-01-19T05:30:52.801Z,-71
2018-01-19T05:31:52.698Z,-71
2018-01-19T05:32:52.752Z,-71
2018-01-19T05:33:52.691Z,-71
2018-01-19T05:34:52.748Z,-71
2018-01-19T05:35:52.641Z,-71
2018-01-19T05:36:52.797Z,-71
2018-01-19T05:37:52.657Z,-72
2018-01-19T05:38:52.750Z,-71
2018-01-19T05:39:52.653Z,-71
2018-01-19T05:40:52.801Z,-71
2018-01-19T05:41:52.649Z,-71
2018-01-19T05:42:52.879Z,-71
2018-01-19T05:43:52.638Z,-70
2018-01-19T05:44:52.754Z,-71
2018-01-19T05:45:52.645Z,-70
2018-01-19T05:46:52.768Z,-71
2018-01-19T05:47:52.645Z,-70
2018-01-19T05:48:53.168Z,-71
2018-01-19T05:49:52.647Z,-71
2018-01-19T05:50:52.820Z,-71
2018-01-19T05:51:52.663Z,-70
2018-01-19T05:52:52.777Z,-71
2018-01-19T05:53:52.656Z,-71
2018-01-19T05:54:52.800Z,-71
2018-01-19T05:55:52.656Z,-71
2018-01-19T05:56:52.764Z,-71
2018-01-19T05:57:52.671Z,-71
2018-01-19T05:58:52.768Z,-71
2018-01-19T05:59:52.670Z,-71
2018-01-19T06:00:52.805Z,-71
2018-01-19T06:01:52.664Z,-71
2018-01-19T06:02:52.763Z,-71
2018-01-19T06:03:52.656Z,-71
2018-01-19T06:04:52.790Z,-71
2018-01-19T06:05:52.681Z,-71
2018-01-19T06:06:53.276Z,-70
2018-01-19T06:07:52.657Z,-71
2018-01-19T06:08:52.783Z,-71
2018-01-19T06:09:52.665Z,-70
2018-01-19T06:10:52.795Z,-71
2018-01-19T06:11:52.667Z,-71
2018-01-19T06:12:53.168Z,-71
2018-01-19T06:13:52.670Z,-71
2018-01-19T06:14:52.784Z,-71
2018-01-19T06:15:52.685Z,-71
2018-01-19T06:16:52.803Z,-70
2018-01-19T06:17:52.671Z,-71
2018-01-19T06:18:52.930Z,-70
2018-01-19T06:19:52.676Z,-71
2018-01-19T06:20:52.794Z,-71
2018-01-19T06:21:52.669Z,-71
2018-01-19T06:22:52.796Z,-70
2018-01-19T06:23:52.688Z,-71
2018-01-19T06:24:52.844Z,-71
2018-01-19T06:25:52.684Z,-71
2018-01-19T06:26:52.805Z,-71
2018-01-19T06:27:52.684Z,-71
2018-01-19T06:28:52.784Z,-71
2018-01-19T06:29:52.697Z,-71
2018-01-19T06:30:52.832Z,-70
2018-01-19T06:31:52.687Z,-71
2018-01-19T06:32:52.794Z,-70
2018-01-19T06:33:52.681Z,-71
2018-01-19T06:34:52.798Z,-71
2018-01-19T06:35:52.760Z,-71
2018-01-19T06:36:52.799Z,-70
2018-01-19T06:37:52.682Z,-71
2018-01-19T06:38:52.805Z,-71
2018-01-19T06:39:52.701Z,-71
2018-01-19T06:40:52.800Z,-71
2018-01-19T06:41:52.726Z,-71
2018-01-19T06:42:52.816Z,-70
2018-01-19T06:43:52.696Z,-70
2018-01-19T06:44:52.820Z,-71
2018-01-19T06:45:52.692Z,-72
2018-01-19T06:46:52.814Z,-71
2018-01-19T06:47:53.040Z,-70
2018-01-19T06:48:52.816Z,-71
2018-01-19T06:49:52.707Z,-71
2018-01-19T06:50:52.813Z,-71
2018-01-19T06:51:52.705Z,-71
2018-01-19T06:52:52.809Z,-70
2018-01-19T06:53:52.739Z,-71
2018-01-19T06:54:52.824Z,-70
2018-01-19T06:55:52.710Z,-71
2018-01-19T06:56:52.820Z,-71
2018-01-19T06:57:52.929Z,-71
2018-01-19T06:58:52.821Z,-70
2018-01-19T06:59:53.022Z,-71
2018-01-19T07:00:52.813Z,-71
2018-01-19T07:01:52.706Z,-71
2018-01-19T07:02:52.820Z,-70
2018-01-19T07:03:52.751Z,-71
2018-01-19T07:04:52.832Z,-71
2018-01-19T07:05:52.754Z,-71
2018-01-19T07:06:52.834Z,-70
2018-01-19T07:07:52.714Z,-71
2018-01-19T07:08:52.834Z,-72
2018-01-19T07:09:52.721Z,-72
2018-01-19T07:10:52.831Z,-71
2018-01-19T07:11:53.168Z,-70
2018-01-19T07:12:52.827Z,-71
2018-01-19T07:13:52.713Z,-70
2018-01-19T07:14:52.823Z,-71
2018-01-19T07:15:52.713Z,-70
2018-01-19T07:16:52.839Z,-71
2018-01-19T07:17:52.765Z,-70
2018-01-19T07:18:53.085Z,-70
2018-01-19T07:19:52.737Z,-71
2018-01-19T07:20:52.832Z,-71
2018-01-19T07:21:52.724Z,-71
2018-01-19T07:22:52.836Z,-71
2018-01-19T07:23:52.778Z,-70
2018-01-19T07:24:52.841Z,-71
2018-01-19T07:25:52.729Z,-71
2018-01-19T07:26:52.830Z,-71
2018-01-19T07:27:52.722Z,-71
2018-01-19T07:28:52.881Z,-71
2018-01-19T07:29:53.092Z,-71
2018-01-19T07:30:52.850Z,-71
2018-01-19T07:31:52.776Z,-71
2018-01-19T07:32:52.843Z,-71
2018-01-19T07:33:52.803Z,-72
2018-01-19T07:34:52.852Z,-70
2018-01-19T07:35:52.758Z,-70
2018-01-19T07:36:52.883Z,-71
2018-01-19T07:37:52.753Z,-71
2018-01-19T07:38:52.849Z,-71
2018-01-19T07:39:52.742Z,-71
2018-01-19T07:40:52.859Z,-70
2018-01-19T07:41:52.796Z,-70
2018-01-19T07:42:52.857Z,-71
2018-01-19T07:43:52.786Z,-71
2018-01-19T07:44:52.854Z,-71
2018-01-19T07:45:52.738Z,-71
2018-01-19T07:46:52.854Z,-71
2018-01-19T07:47:53.146Z,-71
2018-01-19T07:48:52.860Z,-71
2018-01-19T07:49:52.749Z,-71
2018-01-19T07:50:52.866Z,-71
2018-01-19T07:51:52.761Z,-71
2018-01-19T07:52:52.864Z,-71
2018-01-19T07:53:53.208Z,-71
2018-01-19T07:54:52.864Z,-71
2018-01-19T07:55:52.749Z,-70
2018-01-19T07:56:52.862Z,-71
2018-01-19T07:57:52.784Z,-71
2018-01-19T07:58:52.867Z,-70
2018-01-19T07:59:52.784Z,-71
2018-01-19T08:00:52.870Z,-71
2018-01-19T08:01:52.750Z,-71
2018-01-19T08:02:52.862Z,-71
2018-01-19T08:03:52.757Z,-71
2018-01-19T08:04:52.893Z,-70
2018-01-19T08:05:52.904Z,-71
2018-01-19T08:06:52.882Z,-71
2018-01-19T08:07:52.773Z,-72
2018-01-19T08:08:52.887Z,-70
2018-01-19T08:09:52.895Z,-71
2018-01-19T08:10:52.886Z,-71
2018-01-19T08:11:52.892Z,-71
2018-01-19T08:12:52.870Z,-71
2018-01-19T08:13:52.758Z,-70
2018-01-19T08:14:52.892Z,-71
2018-01-19T08:15:52.773Z,-71
2018-01-19T08:16:52.870Z,-70
2018-01-19T08:17:53.158Z,-70
2018-01-19T08:18:52.894Z,-71
2018-01-19T08:19:52.784Z,-72
2018-01-19T08:20:52.887Z,-71
2018-01-19T08:21:52.768Z,-70
2018-01-19T08:22:52.890Z,-71
2018-01-19T08:23:53.266Z,-71
2018-01-19T08:24:52.898Z,-71
2018-01-19T08:25:52.823Z,-71
2018-01-19T08:26:52.874Z,-70
2018-01-19T08:27:52.769Z,-71
2018-01-19T08:28:52.891Z,-72
2018-01-19T08:29:52.838Z,-72
2018-01-19T08:30:52.890Z,-71
2018-01-19T08:31:52.775Z,-71
2018-01-19T08:32:52.936Z,-71
2018-01-19T08:33:53.088Z,-71
2018-01-19T08:34:53.207Z,-71
2018-01-19T08:35:52.795Z,-70
2018-01-19T08:36:52.931Z,-70
2018-01-19T08:37:52.791Z,-71
2018-01-19T08:38:52.897Z,-71
2018-01-19T08:39:52.781Z,-71
2018-01-19T08:40:52.930Z,-71
2018-01-19T08:41:52.791Z,-70
2018-01-19T08:42:52.901Z,-71
2018-01-19T08:43:52.789Z,-71
2018-01-19T08:44:52.901Z,-71
2018-01-19T08:45:52.791Z,-71
2018-01-19T08:46:53.080Z,-70
2018-01-19T08:47:52.798Z,-70
2018-01-19T08:48:52.911Z,-71
2018-01-19T08:49:52.814Z,-71
2018-01-19T08:50:52.905Z,-71
2018-01-19T08:51:52.803Z,-71
2018-01-19T08:52:52.971Z,-70
2018-01-19T08:53:52.798Z,-71
2018-01-19T08:54:52.918Z,-71
2018-01-19T08:55:52.794Z,-70
2018-01-19T08:56:52.920Z,-70
2018-01-19T08:57:52.804Z,-71
2018-01-19T08:58:53.314Z,-71
2018-01-19T08:59:52.800Z,-70
2018-01-19T09:00:52.910Z,-70
2018-01-19T09:01:52.806Z,-71
2018-01-19T09:02:52.935Z,-71
2018-01-19T09:03:52.806Z,-70
2018-01-19T09:04:52.935Z,-71
2018-01-19T09:05:52.799Z,-71
2018-01-19T09:06:52.913Z,-71
2018-01-19T09:07:52.796Z,-71
2018-01-19T09:08:52.911Z,-72
2018-01-19T09:09:52.818Z,-70
2018-01-19T09:10:52.975Z,-71
2018-01-19T09:11:52.818Z,-71
2018-01-19T09:12:53.305Z,-71
2018-01-19T09:13:52.815Z,-70
2018-01-19T09:14:52.951Z,-70
2018-01-19T09:15:53.248Z,-71
2018-01-19T09:16:52.928Z,-71
2018-01-19T09:17:52.869Z,-70
2018-01-19T09:18:52.926Z,-71
2018-01-19T09:19:52.815Z,-71
2018-01-19T09:20:52.976Z,-71
2018-01-19T09:21:52.943Z,-71
2018-01-19T09:22:52.963Z,-71
2018-01-19T09:23:52.818Z,-70
2018-01-19T09:24:52.928Z,-71
2018-01-19T09:25:52.832Z,-70
2018-01-19T09:26:52.940Z,-71
2018-01-19T09:27:52.948Z,-71
2018-01-19T09:28:52.991Z,-71
2018-01-19T09:29:52.850Z,-71
2018-01-19T09:30:52.946Z,-71
2018-01-19T09:31:52.830Z,-71
2018-01-19T09:32:52.947Z,-71
2018-01-19T09:33:52.862Z,-70
2018-01-19T09:34:52.928Z,-71
2018-01-19T09:35:52.851Z,-70
2018-01-19T09:36:52.984Z,-70
2018-01-19T09:37:52.830Z,-71
2018-01-19T09:38:52.958Z,-71
2018-01-19T09:39:53.215Z,-71
2018-01-19T09:40:52.953Z,-71
2018-01-19T09:41:52.828Z,-71
2018-01-19T09:42:52.932Z,-70
2018-01-19T09:43:52.838Z,-71
2018-01-19T09:44:52.952Z,-71
2018-01-19T09:45:53.318Z,-70
2018-01-19T09:46:52.950Z,-71
2018-01-19T09:47:52.843Z,-71
2018-01-19T09:48:52.997Z,-71
2018-01-19T09:49:52.848Z,-70
2018-01-19T09:50:52.957Z,-71
2018-01-19T09:51:52.961Z,-70
2018-01-19T09:52:52.959Z,-71
2018-01-19T09:53:52.860Z,-71
2018-01-19T09:54:52.965Z,-71
2018-01-19T09:55:52.843Z,-71
2018-01-19T09:56:52.945Z,-71
2018-01-19T09:57:52.895Z,-70
2018-01-19T09:58:52.956Z,-70
2018-01-19T09:59:52.851Z,-70
2018-01-19T10:00:52.971Z,-71
2018-01-19T10:01:52.852Z,-72
2018-01-19T10:02:52.963Z,-71
2018-01-19T10:03:52.871Z,-71
2018-01-19T10:04:52.964Z,-71
2018-01-19T10:05:52.893Z,-71
2018-01-19T10:06:52.972Z,-71
2018-01-19T10:07:52.860Z,-71
2018-01-19T10:08:52.967Z,-71
2018-01-19T10:09:52.949Z,-72
2018-01-19T10:10:52.963Z,-71
2018-01-19T10:11:52.860Z,-70
2018-01-19T10:12:52.969Z,-71
2018-01-19T10:13:52.867Z,-71
2018-01-19T10:14:52.975Z,-71
2018-01-19T10:15:53.308Z,-71
2018-01-19T10:16:52.974Z,-71
2018-01-19T10:17:52.858Z,-71
2018-01-19T10:18:53.147Z,-71
2018-01-19T10:19:52.865Z,-70
2018-01-19T10:20:52.980Z,-71
2018-01-19T10:21:52.895Z,-71
2018-01-19T10:22:52.977Z,-71
2018-01-19T10:23:52.858Z,-71
2018-01-19T10:24:52.976Z,-71
2018-01-19T10:25:52.865Z,-69
2018-01-19T10:26:53.457Z,-71
2018-01-19T10:27:53.077Z,-71
2018-01-19T10:28:52.986Z,-71
2018-01-19T10:29:52.873Z,-71
2018-01-19T10:30:52.983Z,-71
2018-01-19T10:31:52.865Z,-71
2018-01-19T10:32:53.108Z,-71
2018-01-19T10:33:52.871Z,-71
2018-01-19T10:34:52.995Z,-71
2018-01-19T10:35:52.879Z,-71
2018-01-19T10:36:52.988Z,-71
2018-01-19T10:37:52.878Z,-70
2018-01-19T10:38:53.084Z,-71
2018-01-19T10:39:52.888Z,-71
2018-01-19T10:40:52.997Z,-71
2018-01-19T10:41:52.893Z,-71
2018-01-19T10:42:52.996Z,-71
2018-01-19T10:43:52.892Z,-71
2018-01-19T10:44:53.019Z,-71
2018-01-19T10:45:52.891Z,-71
2018-01-19T10:46:52.992Z,-71
2018-01-19T10:47:52.881Z,-70
2018-01-19T10:48:53.009Z,-71
2018-01-19T10:49:52.920Z,-71
2018-01-19T10:50:53.036Z,-70
2018-01-19T10:51:52.878Z,-71
2018-01-19T10:52:53.011Z,-71
2018-01-19T10:53:52.897Z,-71
2018-01-19T10:54:53.057Z,-71
2018-01-19T10:55:52.887Z,-71
2018-01-19T10:56:53.520Z,-70
2018-01-19T10:57:52.891Z,-71
2018-01-19T10:58:53.005Z,-71
2018-01-19T10:59:52.900Z,-71
2018-01-19T11:00:53.015Z,-71
2018-01-19T11:01:52.891Z,-71
2018-01-19T11:02:53.045Z,-71
2018-01-19T11:03:52.888Z,-71
2018-01-19T11:04:53.013Z,-70
2018-01-19T11:05:52.893Z,-71
2018-01-19T11:06:53.024Z,-71
2018-01-19T11:07:52.950Z,-71
2018-01-19T11:08:53.126Z,-70
2018-01-19T11:09:52.914Z,-70
2018-01-19T11:10:53.150Z,-70
2018-01-19T11:11:52.904Z,-71
2018-01-19T11:12:53.023Z,-71
2018-01-19T11:13:52.903Z,-71
2018-01-19T11:14:53.140Z,-71
2018-01-19T11:15:52.913Z,-71
2018-01-19T11:16:53.049Z,-71
2018-01-19T11:17:52.921Z,-71
2018-01-19T11:18:53.022Z,-71
2018-01-19T11:19:52.929Z,-71
2018-01-19T11:20:53.448Z,-71
2018-01-19T11:21:52.980Z,-71
2018-01-19T11:22:53.038Z,-71
2018-01-19T11:23:52.907Z,-71
2018-01-19T11:24:53.037Z,-70
2018-01-19T11:25:52.925Z,-71
2018-01-19T11:26:53.080Z,-70
2018-01-19T11:27:52.918Z,-71
2018-01-19T11:28:53.027Z,-70
2018-01-19T11:29:52.930Z,-71
2018-01-19T11:30:53.042Z,-71
2018-01-19T11:31:52.979Z,-70
2018-01-19T11:32:53.452Z,-71
2018-01-19T11:33:52.924Z,-71
2018-01-19T11:34:53.057Z,-71
2018-01-19T11:35:52.924Z,-70
2018-01-19T11:36:53.034Z,-70
2018-01-19T11:37:52.917Z,-71
2018-01-19T11:38:53.082Z,-71
2018-01-19T11:39:52.922Z,-72
2018-01-19T11:40:53.029Z,-70
2018-01-19T11:41:52.925Z,-70
2018-01-19T11:42:53.030Z,-71
2018-01-19T11:43:52.917Z,-70
2018-01-19T11:44:53.089Z,-71
2018-01-19T11:45:52.932Z,-71
2018-01-19T11:46:53.038Z,-71
2018-01-19T11:47:52.947Z,-71
2018-01-19T11:48:53.045Z,-71
2018-01-19T11:49:52.929Z,-71
2018-01-19T11:50:53.171Z,-71
2018-01-19T11:51:52.939Z,-70
2018-01-19T11:52:53.049Z,-70
2018-01-19T11:53:52.942Z,-71
2018-01-19T11:54:53.044Z,-70
2018-01-19T11:55:53.162Z,-71
2018-01-19T11:56:53.097Z,-70
2018-01-19T11:57:52.939Z,-71
2018-01-19T11:58:53.064Z,-71
2018-01-19T11:59:52.950Z,-71
2018-01-19T12:00:53.050Z,-71
2018-01-19T12:01:52.963Z,-70
2018-01-19T12:02:53.172Z,-71
2018-01-19T12:03:52.950Z,-71
2018-01-19T12:04:53.087Z,-70
2018-01-19T12:05:52.995Z,-71
2018-01-19T12:06:53.054Z,-71
2018-01-19T12:07:52.952Z,-70
2018-01-19T12:08:53.136Z,-70
2018-01-19T12:09:52.979Z,-71
2018-01-19T12:10:53.070Z,-71
2018-01-19T12:11:52.956Z,-71
2018-01-19T12:12:53.077Z,-72
2018-01-19T12:13:52.963Z,-70
2018-01-19T12:14:53.183Z,-71
2018-01-19T12:15:52.969Z,-70
2018-01-19T12:16:53.066Z,-71
2018-01-19T12:17:52.969Z,-71
2018-01-19T12:18:53.114Z,-72
2018-01-19T12:19:52.965Z,-70
2018-01-19T12:20:53.336Z,-70
2018-01-19T12:21:52.949Z,-71
2018-01-19T12:22:53.068Z,-71
2018-01-19T12:23:52.976Z,-69
2018-01-19T12:24:53.085Z,-71
2018-01-19T12:25:52.960Z,-71
2018-01-19T12:26:53.491Z,-71
2018-01-19T12:27:52.953Z,-71
2018-01-19T12:28:53.071Z,-72
2018-01-19T12:29:52.965Z,-71
2018-01-19T12:30:53.085Z,-70
2018-01-19T12:31:52.965Z,-71
2018-01-19T12:32:53.132Z,-71
2018-01-19T12:33:52.970Z,-71
2018-01-19T12:34:53.077Z,-71
2018-01-19T12:35:52.975Z,-71
2018-01-19T12:36:53.139Z,-70
2018-01-19T12:37:52.972Z,-71
2018-01-19T12:38:53.112Z,-71
2018-01-19T12:39:52.984Z,-71
2018-01-19T12:40:53.082Z,-70
2018-01-19T12:41:52.978Z,-71
2018-01-19T12:42:53.080Z,-71
2018-01-19T12:43:52.979Z,-71
2018-01-19T12:44:53.219Z,-70
2018-01-19T12:45:52.970Z,-70
2018-01-19T12:46:53.098Z,-72
2018-01-19T12:47:52.984Z,-70
2018-01-19T12:48:53.082Z,-69
2018-01-19T12:49:52.984Z,-68
2018-01-19T12:50:53.343Z,-68
2018-01-19T12:51:52.980Z,-68
2018-01-19T12:52:53.142Z,-67
2018-01-19T12:53:52.979Z,-65
2018-01-19T12:54:53.105Z,-69
2018-01-19T12:55:52.984Z,-67
2018-01-19T12:56:53.154Z,-67
2018-01-19T12:57:52.988Z,-66
2018-01-19T12:58:54.728Z,-64
2018-01-19T12:59:52.994Z,-66
2018-01-19T13:00:53.127Z,-65
2018-01-19T13:01:52.981Z,-65
2018-01-19T13:02:53.145Z,-65
2018-01-19T13:03:53.961Z,-66
2018-01-19T13:04:53.096Z,-66
2018-01-19T13:05:52.982Z,-70
2018-01-19T13:06:53.104Z,-67
2018-01-19T13:07:52.996Z,-67
2018-01-19T13:08:53.600Z,-67
2018-01-19T13:09:52.997Z,-66
2018-01-19T13:10:53.107Z,-69
2018-01-19T13:11:52.994Z,-66
2018-01-19T13:12:56.442Z,-67
2018-01-19T13:13:53.642Z,-69
2018-01-19T13:14:58.388Z,-67
2018-01-19T13:15:53.734Z,-68
2018-01-19T13:16:54.519Z,-68
2018-01-19T13:17:53.462Z,-67
2018-01-19T13:18:54.043Z,-67
2018-01-19T13:19:56.866Z,-69
2018-01-19T13:20:54.566Z,-67
2018-01-19T13:21:54.411Z,-66
2018-01-19T13:22:55.663Z,-68
2018-01-19T13:23:53.895Z,-68
2018-01-19T13:24:54.553Z,-68
2018-01-19T13:25:54.192Z,-70
2018-01-19T13:26:57.559Z,-67
2018-01-19T13:27:54.383Z,-68
2018-01-19T13:28:55.885Z,-69
2018-01-19T13:29:55.076Z,-69
2018-01-19T13:30:54.651Z,-69
2018-01-19T13:31:55.515Z,-69
2018-01-19T13:32:56.939Z,-71
2018-01-19T13:33:54.985Z,-68
2018-01-19T13:35:01.216Z,-68
2018-01-19T13:35:54.219Z,-65
2018-01-19T13:36:55.978Z,-68
2018-01-19T13:37:55.286Z,-69
2018-01-19T13:38:53.723Z,-69
2018-01-19T13:39:53.294Z,-69
2018-01-19T13:40:53.748Z,-70
2018-01-19T13:41:53.226Z,-70
2018-01-19T13:42:53.788Z,-69
2018-01-19T13:43:53.378Z,-67
2018-01-19T13:44:56.234Z,-70
2018-01-19T13:45:53.775Z,-68
2018-01-19T13:46:54.169Z,-68